createdAt,value
2023-04-16T00:00:36.528Z,9.70
2023-04-16T00:03:00.056Z,9.82
2023-04-16T00:05:23.829Z,10.10
2023-04-16T00:07:48.467Z,9.45
2023-04-16T00:10:12.147Z,9.23
2023-04-16T00:12:36.485Z,8.90
2023-04-16T00:14:59.832Z,9.60
2023-04-16T00:17:23.140Z,10.00
2023-04-16T00:19:46.646Z,9.48
2023-04-16T00:22:10.113Z,10.15
2023-04-16T00:24:34.753Z,10.18
2023-04-16T00:26:57.971Z,9.52
2023-04-16T00:29:21.308Z,10.40
2023-04-16T00:31:44.584Z,9.65
2023-04-16T00:34:07.832Z,10.80
2023-04-16T00:36:31.281Z,9.90
2023-04-16T00:38:55.716Z,9.50
2023-04-16T00:41:20.682Z,11.38
2023-04-16T00:43:44.058Z,10.70
2023-04-16T00:46:08.036Z,10.90
2023-04-16T00:48:32.852Z,10.98
2023-04-16T00:50:56.527Z,9.98
2023-04-16T00:53:20.025Z,11.15
2023-04-16T00:55:43.809Z,11.10
2023-04-16T00:58:08.812Z,11.48
2023-04-16T01:00:32.028Z,10.98
2023-04-16T01:02:55.979Z,11.30
2023-04-16T01:05:19.608Z,11.75
2023-04-16T01:07:42.867Z,9.85
2023-04-16T01:10:07.094Z,11.80
2023-04-16T01:12:30.660Z,11.75
2023-04-16T01:14:55.388Z,12.60
2023-04-16T01:17:18.628Z,11.30
2023-04-16T01:19:42.581Z,12.20
2023-04-16T01:22:07.350Z,12.70
2023-04-16T01:24:30.860Z,11.77
2023-04-16T01:26:54.205Z,12.18
2023-04-16T01:29:17.507Z,12.43
2023-04-16T01:31:41.137Z,13.90
2023-04-16T01:34:21.047Z,14.02
2023-04-16T01:36:44.530Z,14.00
2023-04-16T01:39:11.500Z,13.65
2023-04-16T01:41:34.793Z,13.93
2023-04-16T01:43:58.713Z,13.60
2023-04-16T01:46:28.989Z,14.63
2023-04-16T01:48:54.697Z,13.38
2023-04-16T01:51:17.992Z,13.40
2023-04-16T01:53:41.694Z,15.27
2023-04-16T01:56:08.168Z,14.73
2023-04-16T01:58:33.202Z,14.80
2023-04-16T02:00:57.095Z,15.02
2023-04-16T02:03:20.514Z,14.60
2023-04-16T02:05:43.881Z,14.70
2023-04-16T02:08:07.677Z,14.40
2023-04-16T02:10:31.035Z,16.35
2023-04-16T02:12:56.967Z,15.15
2023-04-16T02:15:20.606Z,16.65
2023-04-16T02:17:44.251Z,16.65
2023-04-16T02:20:10.275Z,15.82
2023-04-16T02:22:44.413Z,16.27
2023-04-16T02:25:11.018Z,17.27
2023-04-16T02:27:34.269Z,16.70
2023-04-16T02:30:13.036Z,17.67
2023-04-16T02:32:37.109Z,17.40
2023-04-16T02:35:00.521Z,18.48
2023-04-16T02:37:24.701Z,19.58
2023-04-16T02:39:49.712Z,17.45
2023-04-16T02:42:12.980Z,19.45
2023-04-16T02:44:36.232Z,19.00
2023-04-16T02:47:00.953Z,18.50
2023-04-16T02:49:25.016Z,17.75
2023-04-16T02:51:48.380Z,17.55
2023-04-16T02:54:11.699Z,18.23
2023-04-16T02:56:35.082Z,19.75
2023-04-16T02:58:58.358Z,19.40
2023-04-16T03:01:21.697Z,17.67
2023-04-16T03:03:46.487Z,19.55
2023-04-16T03:06:10.005Z,19.17
2023-04-16T03:08:33.342Z,18.80
2023-04-16T03:10:56.643Z,17.17
2023-04-16T03:13:19.902Z,17.00
2023-04-16T03:15:49.362Z,18.35
2023-04-16T03:18:12.765Z,18.38
2023-04-16T03:20:37.364Z,17.95
2023-04-16T03:23:00.678Z,18.83
2023-04-16T03:25:24.717Z,19.05
2023-04-16T03:27:48.069Z,19.17
2023-04-16T03:30:13.910Z,19.48
2023-04-16T03:32:38.431Z,17.73
2023-04-16T03:35:02.248Z,19.10
2023-04-16T03:37:27.083Z,18.00
2023-04-16T03:39:50.426Z,19.25
2023-04-16T03:42:13.745Z,18.45
2023-04-16T03:44:37.677Z,18.80
2023-04-16T03:47:01.080Z,20.70
2023-04-16T03:49:24.481Z,20.45
2023-04-16T03:51:48.461Z,19.33
2023-04-16T03:54:13.119Z,18.63
2023-04-16T03:56:37.613Z,20.30
2023-04-16T03:59:00.870Z,21.17
2023-04-16T04:01:24.276Z,21.52
2023-04-16T04:03:49.192Z,21.00
2023-04-16T04:06:12.789Z,19.40
2023-04-16T04:08:36.504Z,21.33
2023-04-16T04:11:02.589Z,20.33
2023-04-16T04:13:26.987Z,21.30
2023-04-16T04:15:50.671Z,21.23
2023-04-16T04:18:14.293Z,21.52
2023-04-16T04:20:41.655Z,21.58
2023-04-16T04:23:05.328Z,20.63
2023-04-16T04:25:28.759Z,21.63
2023-04-16T04:27:53.438Z,21.90
2023-04-16T04:30:16.844Z,20.55
2023-04-16T04:32:40.974Z,21.35
2023-04-16T04:35:05.592Z,21.00
2023-04-16T04:37:28.893Z,22.10
2023-04-16T04:39:52.169Z,20.83
2023-04-16T04:42:16.184Z,20.48
2023-04-16T04:44:40.810Z,20.58
2023-04-16T04:47:04.974Z,21.55
2023-04-16T04:49:28.304Z,20.65
2023-04-16T04:51:51.616Z,22.40
2023-04-16T04:54:14.968Z,23.35
2023-04-16T04:56:39.998Z,24.23
2023-04-16T04:59:03.239Z,23.60
2023-04-16T05:01:27.966Z,22.08
2023-04-16T05:03:51.352Z,21.05
2023-04-16T05:06:14.616Z,23.38
2023-04-16T05:08:37.904Z,26.75
2023-04-16T05:11:01.726Z,23.33
2023-04-16T05:13:25.162Z,22.50
2023-04-16T05:15:48.584Z,24.02
2023-04-16T05:18:13.278Z,24.85
2023-04-16T05:20:37.984Z,22.13
2023-04-16T05:23:01.380Z,24.63
2023-04-16T05:25:24.916Z,26.42
2023-04-16T05:27:48.169Z,23.42
2023-04-16T05:30:12.452Z,23.50
2023-04-16T05:32:35.982Z,26.88
2023-04-16T05:35:00.697Z,25.88
2023-04-16T05:37:24.059Z,29.88
2023-04-16T05:39:47.308Z,24.35
2023-04-16T05:42:11.152Z,33.72
2023-04-16T05:44:34.858Z,25.17
2023-04-16T05:46:58.114Z,23.42
2023-04-16T05:49:22.088Z,22.85
2023-04-16T05:51:47.364Z,25.63
2023-04-16T05:54:10.655Z,29.67
2023-04-16T05:56:33.842Z,25.67
2023-04-16T05:58:57.148Z,24.83
2023-04-16T06:01:20.402Z,24.60
2023-04-16T06:03:44.281Z,24.90
2023-04-16T06:06:08.909Z,25.40
2023-04-16T06:08:33.508Z,25.75
2023-04-16T06:10:57.019Z,25.10
2023-04-16T06:13:20.340Z,26.33
2023-04-16T06:15:43.785Z,25.10
2023-04-16T06:18:07.088Z,25.70
2023-04-16T06:20:30.652Z,24.77
2023-04-16T06:22:54.049Z,24.15
2023-04-16T06:25:18.983Z,25.65
2023-04-16T06:27:42.330Z,25.90
2023-04-16T06:30:07.410Z,26.80
2023-04-16T06:32:31.176Z,27.00
2023-04-16T06:34:54.653Z,27.27
2023-04-16T06:37:17.963Z,29.13
2023-04-16T06:39:41.302Z,27.02
2023-04-16T06:42:06.274Z,25.27
2023-04-16T06:44:29.537Z,28.02
2023-04-16T06:46:52.912Z,23.73
2023-04-16T06:49:16.249Z,24.65
2023-04-16T06:51:39.595Z,25.35
2023-04-16T06:54:02.988Z,26.90
2023-04-16T06:56:26.381Z,24.17
2023-04-16T06:58:51.801Z,25.45
2023-04-16T07:01:15.289Z,24.55
2023-04-16T07:03:38.846Z,24.70
2023-04-16T07:06:02.467Z,26.65
2023-04-16T07:08:25.791Z,25.33
2023-04-16T07:10:49.123Z,26.20
2023-04-16T07:13:13.253Z,25.67
2023-04-16T07:15:38.098Z,28.45
2023-04-16T07:18:01.435Z,27.50
2023-04-16T07:20:25.101Z,28.92
2023-04-16T07:22:48.446Z,34.00
2023-04-16T07:25:12.081Z,26.85
2023-04-16T07:27:35.325Z,25.52
2023-04-16T07:29:58.602Z,41.75
2023-04-16T07:32:23.682Z,29.27
2023-04-16T07:34:47.004Z,28.58
2023-04-16T07:37:10.507Z,28.55
2023-04-16T07:39:33.831Z,27.08
2023-04-16T07:41:57.111Z,27.92
2023-04-16T07:44:20.376Z,27.10
2023-04-16T07:46:46.791Z,29.60
2023-04-16T07:49:12.455Z,28.33
2023-04-16T07:51:35.636Z,25.30
2023-04-16T07:53:58.830Z,27.80
2023-04-16T07:56:21.989Z,28.17
2023-04-16T07:58:45.213Z,28.73
2023-04-16T08:01:08.517Z,28.17
2023-04-16T08:03:31.903Z,26.98
2023-04-16T08:05:56.705Z,27.83
2023-04-16T08:08:19.961Z,28.33
2023-04-16T08:10:43.242Z,27.40
2023-04-16T08:13:06.555Z,28.38
2023-04-16T08:15:29.942Z,27.00
2023-04-16T08:17:53.318Z,26.25
2023-04-16T08:20:18.626Z,29.25
2023-04-16T08:22:44.009Z,28.67
2023-04-16T08:25:08.943Z,28.75
2023-04-16T08:27:32.244Z,28.70
2023-04-16T08:29:55.583Z,27.60
2023-04-16T08:32:18.890Z,26.70
2023-04-16T08:34:43.326Z,28.33
2023-04-16T08:37:06.630Z,26.30
2023-04-16T08:39:31.348Z,28.15
2023-04-16T08:41:56.376Z,27.20
2023-04-16T08:44:27.291Z,27.35
2023-04-16T08:46:54.790Z,27.20
2023-04-16T08:49:19.161Z,27.88
2023-04-16T08:51:47.102Z,27.50
2023-04-16T08:54:13.481Z,29.38
2023-04-16T08:56:42.413Z,28.08
2023-04-16T08:59:06.498Z,26.98
2023-04-16T09:01:30.149Z,26.83
2023-04-16T09:03:53.976Z,27.98
2023-04-16T09:06:18.366Z,27.23
2023-04-16T09:08:42.710Z,26.00
2023-04-16T09:11:06.565Z,25.33
2023-04-16T09:13:32.852Z,26.20
2023-04-16T09:15:57.171Z,24.40
2023-04-16T09:18:21.503Z,24.02
2023-04-16T09:20:44.775Z,27.23
2023-04-16T09:23:08.045Z,25.23
2023-04-16T09:25:34.717Z,24.13
2023-04-16T09:27:57.984Z,26.13
2023-04-16T09:30:25.079Z,24.42
2023-04-16T09:32:48.938Z,24.73
2023-04-16T09:35:12.122Z,24.38
2023-04-16T09:37:35.710Z,24.10
2023-04-16T09:40:00.906Z,22.30
2023-04-16T09:42:27.407Z,22.58
2023-04-16T09:44:51.661Z,22.95
2023-04-16T09:47:16.609Z,22.73
2023-04-16T09:49:43.861Z,21.90
2023-04-16T09:52:15.124Z,23.17
2023-04-16T09:54:42.817Z,22.35
2023-04-16T09:57:07.380Z,22.00
2023-04-16T09:59:33.830Z,22.23
2023-04-16T10:02:14.946Z,23.25
2023-04-16T10:04:49.719Z,22.60
2023-04-16T10:07:13.319Z,20.92
2023-04-16T10:09:40.004Z,23.33
2023-04-16T10:12:03.535Z,22.38
2023-04-16T10:14:26.831Z,21.30
2023-04-16T10:16:50.347Z,22.35
2023-04-16T10:19:14.397Z,20.27
2023-04-16T10:21:39.132Z,21.08
2023-04-16T10:24:03.029Z,22.25
2023-04-16T10:26:26.348Z,19.88
2023-04-16T10:28:49.876Z,20.38
2023-04-16T10:31:14.461Z,21.30
2023-04-16T10:33:41.515Z,20.83
2023-04-16T10:36:13.163Z,20.15
2023-04-16T10:38:41.152Z,20.38
2023-04-16T10:41:05.876Z,18.90
2023-04-16T10:43:30.775Z,20.00
2023-04-16T10:45:56.156Z,19.05
2023-04-16T10:48:20.616Z,17.17
2023-04-16T10:50:43.913Z,15.70
2023-04-16T10:53:21.706Z,14.60
2023-04-16T10:56:12.792Z,16.50
2023-04-16T10:58:37.432Z,16.75
2023-04-16T11:01:01.979Z,17.08
2023-04-16T11:03:26.055Z,17.75
2023-04-16T11:05:49.481Z,15.60
2023-04-16T11:08:16.012Z,15.55
2023-04-16T11:10:41.247Z,15.98
2023-04-16T11:13:08.997Z,18.05
2023-04-16T11:15:33.666Z,17.65
2023-04-16T11:17:56.977Z,17.15
2023-04-16T11:20:22.156Z,14.23
2023-04-16T11:22:46.528Z,12.77
2023-04-16T11:25:10.880Z,14.73
2023-04-16T11:27:34.256Z,14.25
2023-04-16T11:30:05.009Z,16.48
2023-04-16T11:32:28.424Z,16.73
2023-04-16T11:34:51.930Z,14.43
2023-04-16T11:37:15.239Z,15.25
2023-04-16T11:39:50.876Z,15.05
2023-04-16T11:42:22.766Z,14.18
2023-04-16T11:44:46.119Z,13.10
2023-04-16T11:47:13.716Z,13.02
2023-04-16T11:49:37.045Z,12.25
2023-04-16T11:52:01.505Z,16.13
2023-04-16T11:54:26.267Z,15.30
2023-04-16T11:56:51.445Z,14.30
2023-04-16T11:59:16.601Z,14.43
2023-04-16T12:01:42.092Z,14.23
2023-04-16T12:04:07.524Z,13.65
2023-04-16T12:06:32.275Z,11.88
2023-04-16T12:08:55.720Z,12.00
2023-04-16T12:11:18.979Z,12.25
2023-04-16T12:13:42.290Z,12.35
2023-04-16T12:16:17.701Z,13.00
2023-04-16T12:19:01.205Z,13.55
2023-04-16T12:21:26.501Z,12.50
2023-04-16T12:23:54.973Z,12.43
2023-04-16T12:26:18.449Z,11.88
2023-04-16T12:28:42.013Z,12.50
2023-04-16T12:31:06.450Z,11.02
2023-04-16T12:33:30.029Z,12.18
2023-04-16T12:35:53.385Z,13.13
2023-04-16T12:38:18.402Z,11.90
2023-04-16T12:40:42.180Z,12.18
2023-04-16T12:43:05.707Z,12.75
2023-04-16T12:45:29.035Z,13.35
2023-04-16T12:47:52.407Z,13.77
2023-04-16T12:50:16.072Z,13.45
2023-04-16T12:52:39.485Z,14.77
2023-04-16T12:55:04.713Z,12.82
2023-04-16T12:57:28.747Z,13.27
2023-04-16T12:59:52.018Z,12.70
2023-04-16T13:02:15.479Z,13.35
2023-04-16T13:04:38.937Z,14.65
2023-04-16T13:07:02.404Z,14.10
2023-04-16T13:09:26.034Z,16.27
2023-04-16T13:11:50.996Z,15.77
2023-04-16T13:14:14.258Z,13.27
2023-04-16T13:16:38.704Z,13.30
2023-04-16T13:19:02.085Z,13.20
2023-04-16T13:21:25.367Z,13.52
2023-04-16T13:23:48.686Z,12.35
2023-04-16T13:26:13.043Z,12.88
2023-04-16T13:28:37.703Z,13.10
2023-04-16T13:31:03.397Z,13.88
2023-04-16T13:33:28.378Z,13.43
2023-04-16T13:35:51.656Z,13.65
2023-04-16T13:38:14.906Z,13.73
2023-04-16T13:40:38.199Z,13.88
2023-04-16T13:43:01.753Z,14.27
2023-04-16T13:45:27.819Z,13.40
2023-04-16T13:47:51.166Z,13.43
2023-04-16T13:50:14.477Z,13.95
2023-04-16T13:52:37.844Z,12.18
2023-04-16T13:55:01.636Z,14.02
2023-04-16T13:57:24.974Z,13.32
2023-04-16T13:59:48.243Z,14.18
2023-04-16T14:02:13.504Z,14.88
2023-04-16T14:04:36.683Z,13.57
2023-04-16T14:06:59.975Z,13.80
2023-04-16T14:09:23.288Z,13.73
2023-04-16T14:11:47.008Z,14.02
2023-04-16T14:14:10.317Z,13.73
2023-04-16T14:16:33.951Z,14.73
2023-04-16T14:18:58.570Z,14.63
2023-04-16T14:21:21.835Z,15.65
2023-04-16T14:23:45.128Z,14.32
2023-04-16T14:26:08.564Z,13.57
2023-04-16T14:28:32.065Z,14.93
2023-04-16T14:30:55.370Z,13.93
2023-04-16T14:33:18.641Z,14.40
2023-04-16T14:35:43.396Z,15.30
2023-04-16T14:38:06.632Z,15.02
2023-04-16T14:40:30.043Z,14.30
2023-04-16T14:42:53.309Z,14.82
2023-04-16T14:45:16.583Z,14.98
2023-04-16T14:47:45.808Z,13.68
2023-04-16T14:50:11.347Z,13.52
2023-04-16T14:52:35.948Z,15.05
2023-04-16T14:54:59.704Z,15.73
2023-04-16T14:57:23.314Z,15.13
2023-04-16T14:59:47.505Z,13.80
2023-04-16T15:02:11.221Z,14.80
2023-04-16T15:04:34.709Z,15.85
2023-04-16T15:06:58.990Z,14.57
2023-04-16T15:09:23.619Z,14.07
2023-04-16T15:11:46.882Z,13.45
2023-04-16T15:14:10.298Z,14.80
2023-04-16T15:16:33.848Z,15.18
2023-04-16T15:18:57.194Z,13.73
2023-04-16T15:21:20.530Z,14.85
2023-04-16T15:23:43.905Z,14.43
2023-04-16T15:26:08.508Z,15.93
2023-04-16T15:28:31.845Z,16.05
2023-04-16T15:30:55.227Z,16.50
2023-04-16T15:33:18.567Z,16.05
2023-04-16T15:35:42.118Z,16.40
2023-04-16T15:38:06.003Z,14.55
2023-04-16T15:40:29.392Z,14.48
2023-04-16T15:42:54.370Z,14.85
2023-04-16T15:45:17.878Z,14.70
2023-04-16T15:47:41.887Z,13.95
2023-04-16T15:50:06.525Z,16.63
2023-04-16T15:52:29.897Z,17.23
2023-04-16T15:54:53.408Z,18.00
2023-04-16T15:57:16.677Z,19.00
2023-04-16T15:59:41.332Z,17.83
2023-04-16T16:02:04.717Z,18.08
2023-04-16T16:04:28.420Z,18.50
2023-04-16T16:06:52.094Z,19.63
2023-04-16T16:09:15.600Z,21.30
2023-04-16T16:11:39.137Z,20.48
2023-04-16T16:14:02.490Z,19.17
2023-04-16T16:16:27.469Z,20.45
2023-04-16T16:18:50.806Z,21.25
2023-04-16T16:21:14.031Z,19.88
2023-04-16T16:23:37.517Z,21.38
2023-04-16T16:26:01.433Z,22.15
2023-04-16T16:28:25.232Z,20.67
2023-04-16T16:30:50.802Z,21.20
2023-04-16T16:33:16.078Z,19.00
2023-04-16T16:35:39.316Z,17.33
2023-04-16T16:38:02.797Z,16.55
2023-04-16T16:40:26.338Z,16.65
2023-04-16T16:42:49.839Z,15.60
2023-04-16T16:45:13.352Z,14.75
2023-04-16T16:47:36.710Z,14.52
2023-04-16T16:50:03.018Z,14.48
2023-04-16T16:52:27.300Z,15.18
2023-04-16T16:54:50.600Z,15.15
2023-04-16T16:57:15.285Z,18.20
2023-04-16T16:59:38.560Z,18.45
2023-04-16T17:02:01.922Z,17.77
2023-04-16T17:04:25.453Z,19.60
2023-04-16T17:06:50.817Z,19.27
2023-04-16T17:09:14.209Z,20.17
2023-04-16T17:11:37.885Z,21.70
2023-04-16T17:14:01.168Z,21.58
2023-04-16T17:16:24.617Z,22.17
2023-04-16T17:18:48.486Z,22.42
2023-04-16T17:21:11.760Z,22.65
2023-04-16T17:23:36.479Z,21.42
2023-04-16T17:26:01.763Z,23.02
2023-04-16T17:28:25.973Z,23.38
2023-04-16T17:30:53.052Z,24.10
2023-04-16T17:33:17.142Z,25.48
2023-04-16T17:35:41.083Z,25.67
2023-04-16T17:38:04.348Z,25.33
2023-04-16T17:40:29.086Z,25.65
2023-04-16T17:42:52.511Z,23.77
2023-04-16T17:45:16.022Z,25.33
2023-04-16T17:47:39.855Z,24.52
2023-04-16T17:50:03.413Z,25.05
2023-04-16T17:52:27.275Z,24.10
2023-04-16T17:54:50.544Z,26.50
2023-04-16T17:57:15.755Z,25.65
2023-04-16T17:59:39.056Z,26.23
2023-04-16T18:02:02.434Z,24.23
2023-04-16T18:04:25.775Z,24.50
2023-04-16T18:06:49.094Z,25.75
2023-04-16T18:09:12.416Z,23.20
2023-04-16T18:11:35.826Z,23.50
2023-04-16T18:14:00.550Z,23.15
2023-04-16T18:16:24.445Z,23.38
2023-04-16T18:18:47.848Z,21.42
2023-04-16T18:21:11.288Z,20.63
2023-04-16T18:23:34.575Z,21.40
2023-04-16T18:25:58.662Z,23.05
2023-04-16T18:28:21.951Z,22.55
2023-04-16T18:30:46.863Z,22.85
2023-04-16T18:33:42.757Z,22.02
2023-04-16T18:35:54.915Z,24.13
2023-04-16T18:38:18.388Z,21.65
2023-04-16T18:40:42.326Z,21.95
2023-04-16T18:43:05.758Z,22.90
2023-04-16T18:45:29.010Z,22.92
2023-04-16T18:47:53.695Z,21.70
2023-04-16T18:50:21.068Z,20.25
2023-04-16T18:52:44.421Z,22.38
2023-04-16T18:55:08.751Z,22.00
2023-04-16T18:57:32.135Z,22.95
2023-04-16T18:59:55.729Z,21.95
2023-04-16T19:02:19.172Z,21.60
2023-04-16T19:04:44.021Z,23.05
2023-04-16T19:07:07.294Z,21.80
2023-04-16T19:09:30.634Z,24.13
2023-04-16T19:11:53.923Z,23.23
2023-04-16T19:14:17.755Z,22.60
2023-04-16T19:16:41.706Z,22.42
2023-04-16T19:19:05.542Z,20.60
2023-04-16T19:21:30.761Z,22.30
2023-04-16T19:23:54.174Z,22.67
2023-04-16T19:26:17.736Z,22.48
2023-04-16T19:28:42.446Z,22.40
2023-04-16T19:31:06.500Z,23.05
2023-04-16T19:33:29.976Z,22.33
2023-04-16T19:35:53.290Z,22.05
2023-04-16T19:38:18.300Z,22.70
2023-04-16T19:40:41.652Z,22.48
2023-04-16T19:43:05.110Z,20.95
2023-04-16T19:45:29.129Z,23.50
2023-04-16T19:47:52.591Z,22.08
2023-04-16T19:50:16.171Z,21.58
2023-04-16T19:52:39.377Z,22.60
2023-04-16T19:55:04.181Z,23.60
2023-04-16T19:57:27.385Z,23.77
2023-04-16T19:59:50.879Z,22.58
2023-04-16T20:02:14.161Z,21.73
2023-04-16T20:04:37.427Z,23.33
2023-04-16T20:07:00.730Z,22.23
2023-04-16T20:09:25.365Z,22.25
2023-04-16T20:11:49.909Z,23.60
2023-04-16T20:14:13.288Z,22.25
2023-04-16T20:16:38.547Z,23.88
2023-04-16T20:19:04.604Z,24.75
2023-04-16T20:21:29.215Z,26.35
2023-04-16T20:23:52.514Z,26.48
2023-04-16T20:26:18.215Z,27.38
2023-04-16T20:28:42.971Z,26.67
2023-04-16T20:31:06.283Z,26.55
2023-04-16T20:33:29.529Z,28.13
2023-04-16T20:35:52.784Z,27.27
2023-04-16T20:38:18.194Z,27.95
2023-04-16T20:40:41.947Z,29.13
2023-04-16T20:43:10.039Z,28.02
2023-04-16T20:45:38.161Z,27.52
2023-04-16T20:48:02.349Z,27.88
2023-04-16T20:50:25.772Z,27.92
2023-04-16T20:52:49.209Z,27.13
2023-04-16T20:55:12.480Z,26.42
2023-04-16T20:57:35.862Z,25.73
2023-04-16T20:59:59.586Z,29.25
2023-04-16T21:02:25.152Z,26.58
2023-04-16T21:04:48.621Z,26.60
2023-04-16T21:07:12.145Z,26.48
2023-04-16T21:09:35.676Z,27.75
2023-04-16T21:11:59.049Z,27.92
2023-04-16T21:14:22.611Z,27.88
2023-04-16T21:16:46.089Z,28.98
2023-04-16T21:19:11.300Z,28.58
2023-04-16T21:21:34.755Z,30.88
2023-04-16T21:23:58.053Z,28.55
2023-04-16T21:26:21.433Z,29.40
2023-04-16T21:28:44.934Z,29.00
2023-04-16T21:31:08.338Z,28.23
2023-04-16T21:33:31.610Z,27.80
2023-04-16T21:35:56.326Z,28.92
2023-04-16T21:38:19.647Z,28.35
2023-04-16T21:40:42.897Z,30.45
2023-04-16T21:43:06.486Z,30.45
2023-04-16T21:45:30.663Z,30.50
2023-04-16T21:47:54.035Z,29.98
2023-04-16T21:50:17.415Z,32.47
2023-04-16T21:52:46.509Z,30.38
2023-04-16T21:55:10.792Z,31.83
2023-04-16T21:57:34.009Z,34.63
2023-04-16T21:59:57.355Z,32.95
2023-04-16T22:02:21.219Z,32.92
2023-04-16T22:04:44.510Z,32.17
2023-04-16T22:07:09.764Z,33.47
2023-04-16T22:09:34.400Z,35.25
2023-04-16T22:11:58.186Z,34.65
2023-04-16T22:14:21.526Z,33.85
2023-04-16T22:16:45.711Z,35.08
2023-04-16T22:19:09.584Z,34.83
2023-04-16T22:21:33.057Z,34.58
2023-04-16T22:23:56.356Z,36.80
2023-04-16T22:26:21.001Z,35.08
2023-04-16T22:28:44.305Z,36.88
2023-04-16T22:31:07.560Z,36.50
2023-04-16T22:33:31.342Z,35.88
2023-04-16T22:35:54.810Z,36.13
2023-04-16T22:38:18.042Z,37.85
2023-04-16T22:40:41.342Z,36.55
2023-04-16T22:43:06.216Z,37.13
2023-04-16T22:45:29.533Z,37.63
2023-04-16T22:47:52.835Z,36.33
2023-04-16T22:50:16.115Z,35.55
2023-04-16T22:52:39.398Z,38.40
2023-04-16T22:55:02.703Z,36.05
2023-04-16T22:57:26.191Z,37.70
2023-04-16T22:59:50.833Z,34.45
2023-04-16T23:02:14.079Z,36.40
2023-04-16T23:04:37.387Z,36.78
2023-04-16T23:07:00.822Z,37.65
2023-04-16T23:09:24.078Z,35.05
2023-04-16T23:11:47.358Z,35.40
2023-04-16T23:14:10.702Z,37.63
2023-04-16T23:16:35.406Z,38.63
2023-04-16T23:18:58.726Z,38.92
2023-04-16T23:21:22.902Z,38.10
2023-04-16T23:23:46.273Z,38.97
2023-04-16T23:26:09.505Z,39.35
2023-04-16T23:28:32.746Z,39.33
2023-04-16T23:30:56.053Z,36.70
2023-04-16T23:33:20.810Z,37.17
2023-04-16T23:35:44.053Z,40.13
2023-04-16T23:38:07.492Z,38.60
2023-04-16T23:40:31.193Z,38.05
2023-04-16T23:42:54.427Z,38.38
2023-04-16T23:45:17.930Z,37.67
2023-04-16T23:47:41.324Z,35.67
2023-04-16T23:50:07.585Z,37.47
2023-04-16T23:52:31.011Z,37.72
2023-04-16T23:54:54.251Z,39.28
2023-04-16T23:57:17.703Z,36.72
2023-04-16T23:59:40.947Z,39.10
